CheckWX is a tool to help pilots better visualize weather data.  It is not intended as a substitute for an official pre-flight weather briefing.

15:34:34 UTC

KSAW METAR
Sawyer International Airport
Marquette, Michigan, USA
Current

48 mins ago

KSAW 261447Z 36004KT 10SM SKC 18/05 A3005
Observed
May-26 @ 14:47 UTC
Wind
  • 360° at 4 KTS
Visibility
10 SM
Flight Rules
VFR
Cloud Levels
  • Clear skies
Temperature
18°C / 64°F
Dewpoint
C / 41°F
Humidity
43%
Altimeter
30.05" Hg
Pressure
1017.62 hPa
Previous

2 hours ago

KSAW 261347Z 34005KT 10SM SKC 16/07 A3005
Observed
May-26 @ 13:47 UTC
Wind
  • 340° at 5 KTS
Visibility
10 SM
Flight Rules
VFR
Cloud Levels
  • Clear skies
Temperature
16°C / 61°F
Dewpoint
C / 45°F
Humidity
55%
Altimeter
30.05" Hg
Pressure
1017.62 hPa
Previous

3 hours ago

KSAW 261245Z 34003KT 10SM SKC 14/08 A3005
Observed
May-26 @ 12:45 UTC
Wind
  • 340° at 3 KTS
Visibility
10 SM
Flight Rules
VFR
Cloud Levels
  • Clear skies
Temperature
14°C / 57°F
Dewpoint
C / 46°F
Humidity
67%
Altimeter
30.05" Hg
Pressure
1017.62 hPa